Time;durP1;ratioP1;P1;durP2;ratioP2;P2;SDS_P1;SDS_P2;PMS_P1;PMS_P2;Temp;Humidity;BMP_temperature;BMP_pressure;BME280_temperature;BME280_humidity;BME280_pressure;Samples;Min_cycle;Max_cycle;Signal;HPM_P1;HPM_P2
2023/10/23 00:04:49;;;;;;;1.50;0.70;;;;;;;;;;10330263;28;20054;-76
2023/10/23 00:09:52;;;;;;;0.60;0.38;;;;;;;;;;10313232;28;20056;-76
2023/10/23 00:14:56;;;;;;;3.20;0.77;;;;;;;;;;10324512;28;20072;-76
2023/10/23 00:20:02;;;;;;;1.52;0.73;;;;;;;;;;10323194;28;20050;-76
2023/10/23 00:25:06;;;;;;;0.98;0.57;;;;;;;;;;10310713;28;20042;-76
2023/10/23 00:30:10;;;;;;;3.50;0.77;;;;;;;;;;10323801;28;20389;-76
2023/10/23 00:35:15;;;;;;;2.67;0.50;;;;;;;;;;10323707;28;20053;-76
2023/10/23 00:40:18;;;;;;;1.23;0.63;;;;;;;;;;10329967;28;20046;-76
2023/10/23 00:45:22;;;;;;;0.68;0.43;;;;;;;;;;10328330;28;20049;-76
2023/10/23 00:50:26;;;;;;;0.88;0.50;;;;;;;;;;10309087;28;20069;-76
2023/10/23 00:55:30;;;;;;;1.33;0.60;;;;;;;;;;10330534;28;20104;-76
2023/10/23 01:00:35;;;;;;;1.48;0.73;;;;;;;;;;10325926;28;20055;-76
2023/10/23 01:05:40;;;;;;;0.90;0.53;;;;;;;;;;10327914;28;20470;-76
2023/10/23 01:10:44;;;;;;;2.33;0.63;;;;;;;;;;10309580;28;20057;-76
2023/10/23 01:15:48;;;;;;;1.85;0.50;;;;;;;;;;10305594;28;20464;-76
2023/10/23 01:20:53;;;;;;;0.90;0.50;;;;;;;;;;10326229;28;20047;-76
2023/10/23 01:25:59;;;;;;;2.47;0.65;;;;;;;;;;10310909;28;20047;-76
2023/10/23 01:31:02;;;;;;;1.30;0.80;;;;;;;;;;10330040;28;20058;-76
2023/10/23 01:36:06;;;;;;;1.40;0.50;;;;;;;;;;10329638;28;20534;-76
2023/10/23 01:41:11;;;;;;;2.65;0.85;;;;;;;;;;10329477;28;20054;-76
2023/10/23 01:46:14;;;;;;;2.40;0.57;;;;;;;;;;10373925;23;20557;-75
2023/10/23 01:51:18;;;;;;;1.05;0.60;;;;;;;;;;10370232;28;20185;-76
2023/10/23 01:56:23;;;;;;;3.10;0.50;;;;;;;;;;10370270;28;20054;-76
2023/10/23 02:01:26;;;;;;;1.52;0.50;;;;;;;;;;10353062;28;20053;-75
2023/10/23 02:06:30;;;;;;;0.75;0.55;;;;;;;;;;10367893;28;20057;-76
2023/10/23 02:11:35;;;;;;;1.63;0.60;;;;;;;;;;10356734;28;20434;-77
2023/10/23 02:16:40;;;;;;;2.15;0.60;;;;;;;;;;10359411;28;20149;-77
2023/10/23 02:21:49;;;;;;;0.40;0.40;;;;;;;;;;10369256;28;20046;-77
2023/10/23 02:26:56;;;;;;;0.88;0.40;;;;;;;;;;10356602;28;20046;-77
2023/10/23 02:32:00;;;;;;;1.10;0.50;;;;;;;;;;10371159;28;20077;-77
2023/10/23 02:37:04;;;;;;;1.95;0.60;;;;;;;;;;10372499;28;20447;-77
2023/10/23 02:42:09;;;;;;;1.75;1.10;;;;;;;;;;10368956;28;20042;-77
2023/10/23 02:47:12;;;;;;;1.65;0.55;;;;;;;;;;10356571;28;20494;-77
2023/10/23 02:52:16;;;;;;;0.98;0.80;;;;;;;;;;10369137;28;20057;-77
2023/10/23 02:57:21;;;;;;;0.95;0.60;;;;;;;;;;10367867;28;20107;-77
2023/10/23 03:02:24;;;;;;;0.93;0.60;;;;;;;;;;10374371;28;20449;-77
2023/10/23 03:07:28;;;;;;;1.27;0.55;;;;;;;;;;10373351;28;20529;-77
2023/10/23 03:12:33;;;;;;;1.27;0.50;;;;;;;;;;10367165;28;20050;-77
2023/10/23 03:17:36;;;;;;;2.15;0.60;;;;;;;;;;10370520;28;20050;-77
2023/10/23 03:22:40;;;;;;;1.10;0.55;;;;;;;;;;10378651;28;20057;-77
2023/10/23 03:27:44;;;;;;;1.02;0.80;;;;;;;;;;10368430;28;20466;-77
2023/10/23 03:32:48;;;;;;;1.75;0.70;;;;;;;;;;10373548;28;20221;-77
2023/10/23 03:37:51;;;;;;;0.57;0.50;;;;;;;;;;10369897;28;20054;-77
2023/10/23 03:42:57;;;;;;;1.20;0.73;;;;;;;;;;10348972;28;20100;-77
2023/10/23 03:48:01;;;;;;;0.95;0.57;;;;;;;;;;10370472;28;20117;-77
2023/10/23 03:53:04;;;;;;;1.48;0.60;;;;;;;;;;10374324;28;20049;-77
2023/10/23 03:58:09;;;;;;;1.02;0.50;;;;;;;;;;10365524;28;20057;-78
2023/10/23 04:03:12;;;;;;;1.30;0.77;;;;;;;;;;10370154;28;20663;-78
2023/10/23 04:08:16;;;;;;;2.35;0.82;;;;;;;;;;10376802;28;20507;-78
2023/10/23 04:13:20;;;;;;;2.28;0.77;;;;;;;;;;10369967;28;20065;-77
2023/10/23 04:18:25;;;;;;;0.95;0.80;;;;;;;;;;10368243;28;20624;-77
2023/10/23 04:23:28;;;;;;;1.15;0.90;;;;;;;;;;10374663;28;20572;-77
2023/10/23 04:28:34;;;;;;;2.08;0.65;;;;;;;;;;10376715;28;20096;-77
2023/10/23 04:33:38;;;;;;;2.03;0.80;;;;;;;;;;10370489;28;20061;-77
2023/10/23 04:38:41;;;;;;;1.02;0.60;;;;;;;;;;10370203;28;20046;-77
2023/10/23 04:43:46;;;;;;;2.00;0.80;;;;;;;;;;10372278;28;20093;-77
2023/10/23 04:48:49;;;;;;;1.50;0.90;;;;;;;;;;10369358;28;20057;-77
2023/10/23 04:53:53;;;;;;;1.17;0.90;;;;;;;;;;10351641;28;20631;-77
2023/10/23 04:58:57;;;;;;;1.52;1.00;;;;;;;;;;10366001;28;20100;-77
2023/10/23 05:04:01;;;;;;;2.05;0.77;;;;;;;;;;10369213;28;20049;-77
2023/10/23 05:09:04;;;;;;;1.20;0.80;;;;;;;;;;10374286;28;20511;-75
2023/10/23 05:14:09;;;;;;;3.25;1.05;;;;;;;;;;10362895;28;20048;-77
2023/10/23 05:19:12;;;;;;;1.20;0.80;;;;;;;;;;10375091;28;20033;-77
2023/10/23 05:24:16;;;;;;;2.10;1.08;;;;;;;;;;10374799;28;20050;-77
2023/10/23 05:29:21;;;;;;;1.90;0.77;;;;;;;;;;10376399;28;20049;-77
2023/10/23 05:34:24;;;;;;;2.58;0.82;;;;;;;;;;10376338;28;20054;-77
2023/10/23 05:39:27;;;;;;;1.80;1.05;;;;;;;;;;10379874;28;20200;-77
2023/10/23 05:44:32;;;;;;;1.42;1.00;;;;;;;;;;10384579;28;20072;-77
2023/10/23 05:49:35;;;;;;;1.70;0.70;;;;;;;;;;10368445;28;20053;-77
2023/10/23 05:54:38;;;;;;;2.17;0.95;;;;;;;;;;10359324;28;20046;-77
2023/10/23 05:59:43;;;;;;;1.98;1.02;;;;;;;;;;10364370;28;20660;-78
2023/10/23 06:04:46;;;;;;;1.90;1.17;;;;;;;;;;10360947;28;20161;-77
2023/10/23 06:09:49;;;;;;;1.55;1.10;;;;;;;;;;10344786;28;20053;-77
2023/10/23 06:14:54;;;;;;;2.70;1.20;;;;;;;;;;10372688;28;20048;-77
2023/10/23 06:19:59;;;;;;;2.75;1.25;;;;;;;;;;10346898;28;20423;-77
2023/10/23 06:25:04;;;;;;;1.30;1.08;;;;;;;;;;10370136;28;20125;-77
2023/10/23 06:30:10;;;;;;;1.42;0.88;;;;;;;;;;10360478;28;20451;-77
2023/10/23 06:35:13;;;;;;;3.23;1.00;;;;;;;;;;10379680;28;20760;-77
2023/10/23 06:40:16;;;;;;;2.15;0.93;;;;;;;;;;10375985;28;20646;-77
2023/10/23 06:45:21;;;;;;;1.67;0.82;;;;;;;;;;10376336;28;20050;-77
2023/10/23 06:50:24;;;;;;;0.60;0.60;;;;;;;;;;10381368;28;21106;-77
2023/10/23 06:55:27;;;;;;;0.73;0.73;;;;;;;;;;10360271;28;20060;-77
2023/10/23 07:00:32;;;;;;;1.20;0.60;;;;;;;;;;10377042;28;20052;-78
2023/10/23 07:05:35;;;;;;;0.60;0.60;;;;;;;;;;10366901;28;20049;-77
2023/10/23 07:10:39;;;;;;;2.40;1.00;;;;;;;;;;10374224;28;20046;-78
2023/10/23 07:15:43;;;;;;;1.55;0.90;;;;;;;;;;10356631;28;20050;-77
2023/10/23 07:20:54;;;;;;;1.52;1.20;;;;;;;;;;10384510;28;20042;-77
2023/10/23 07:26:03;;;;;;;2.60;1.00;;;;;;;;;;10380021;28;20136;-78
2023/10/23 07:31:08;;;;;;;1.70;1.00;;;;;;;;;;10378945;28;20045;-77
2023/10/23 07:36:13;;;;;;;1.17;0.88;;;;;;;;;;10372686;28;20084;-78
2023/10/23 07:41:16;;;;;;;1.70;0.90;;;;;;;;;;10370064;28;20038;-78
2023/10/23 07:46:21;;;;;;;1.50;0.70;;;;;;;;;;10354589;23;20665;-76
2023/10/23 07:51:25;;;;;;;2.38;1.25;;;;;;;;;;10372321;28;20050;-76
2023/10/23 07:56:29;;;;;;;2.20;1.20;;;;;;;;;;10375414;28;20054;-76
2023/10/23 08:01:34;;;;;;;2.38;1.17;;;;;;;;;;10366043;28;20042;-76
2023/10/23 08:06:38;;;;;;;0.97;0.87;;;;;;;;;;10366866;28;20054;-76
2023/10/23 08:11:41;;;;;;;1.02;0.70;;;;;;;;;;10347306;28;20447;-76
2023/10/23 08:16:47;;;;;;;1.98;1.45;;;;;;;;;;10366728;28;20046;-76
2023/10/23 08:21:50;;;;;;;1.67;1.20;;;;;;;;;;10363638;28;20048;-76
2023/10/23 08:26:53;;;;;;;2.88;1.63;;;;;;;;;;10363167;28;20042;-76
2023/10/23 08:31:59;;;;;;;3.22;1.77;;;;;;;;;;10365001;28;20231;-76
2023/10/23 08:37:03;;;;;;;5.07;2.70;;;;;;;;;;10367884;28;20064;-76
2023/10/23 08:42:07;;;;;;;5.55;2.97;;;;;;;;;;10354588;28;20073;-76
2023/10/23 08:47:12;;;;;;;4.50;2.83;;;;;;;;;;10365493;28;20253;-76
2023/10/23 08:52:17;;;;;;;6.53;3.58;;;;;;;;;;10365643;28;20045;-76
2023/10/23 08:57:21;;;;;;;6.03;2.70;;;;;;;;;;10370404;28;20041;-76
2023/10/23 09:02:27;;;;;;;4.75;2.75;;;;;;;;;;10367587;28;20058;-76
2023/10/23 09:07:31;;;;;;;6.72;3.40;;;;;;;;;;10362164;28;20042;-76
2023/10/23 09:12:39;;;;;;;5.40;3.13;;;;;;;;;;10368399;28;20539;-76
2023/10/23 09:17:44;;;;;;;;;;;;;;;;;;10365085;28;20057;-76
2023/10/23 09:22:48;;;;;;;4.55;2.70;;;;;;;;;;10358377;28;19928;-76
2023/10/23 09:27:53;;;;;;;7.35;3.60;;;;;;;;;;10367789;28;20538;-76
2023/10/23 09:32:57;;;;;;;6.40;3.53;;;;;;;;;;10369190;28;20058;-76
2023/10/23 09:38:12;;;;;;;4.68;2.60;;;;;;;;;;10361406;28;20045;-76
2023/10/23 09:43:15;;;;;;;5.35;3.50;;;;;;;;;;10357711;28;20081;-76
2023/10/23 09:48:21;;;;;;;5.55;3.67;;;;;;;;;;10371612;28;20445;-76
2023/10/23 09:53:24;;;;;;;4.07;2.60;;;;;;;;;;10362842;28;20494;-76
2023/10/23 09:58:31;;;;;;;3.97;2.85;;;;;;;;;;10376180;28;20054;-76
2023/10/23 10:03:40;;;;;;;3.35;2.05;;;;;;;;;;10360880;28;20499;-76
2023/10/23 10:08:50;;;;;;;2.90;1.90;;;;;;;;;;10370580;28;20038;-76
2023/10/23 10:13:59;;;;;;;;;;;;;;;;;;10377318;28;20049;-76
2023/10/23 10:19:05;;;;;;;3.00;1.90;;;;;;;;;;10370021;28;19921;-76
2023/10/23 10:24:10;;;;;;;4.25;2.75;;;;;;;;;;10369884;28;20523;-76
2023/10/23 10:29:14;;;;;;;3.22;2.53;;;;;;;;;;10368687;28;20577;-76
2023/10/23 10:34:27;;;;;;;2.45;2.00;;;;;;;;;;10365935;28;20057;-76
2023/10/23 10:40:03;;;;;;;1.98;1.80;;;;;;;;;;10364213;28;20068;-76
2023/10/23 10:45:16;;;;;;;3.20;2.40;;;;;;;;;;10367497;28;20046;-76
2023/10/23 10:50:38;;;;;;;1.48;1.35;;;;;;;;;;10368598;28;20129;-76
2023/10/23 10:55:45;;;;;;;1.35;1.20;;;;;;;;;;10367760;28;20054;-75
2023/10/23 11:00:48;;;;;;;;;;;;;;;;;;10350866;28;20115;-76
2023/10/23 11:05:53;;;;;;;1.88;1.23;;;;;;;;;;10351196;28;19921;-76
2023/10/23 11:10:57;;;;;;;1.83;1.42;;;;;;;;;;10350537;28;20053;-76
2023/10/23 11:16:01;;;;;;;2.15;1.42;;;;;;;;;;10351412;28;20069;-75
2023/10/23 11:21:07;;;;;;;3.03;1.55;;;;;;;;;;10351858;28;20073;-76
2023/10/23 11:26:10;;;;;;;2.78;2.08;;;;;;;;;;10369854;28;20053;-75
2023/10/23 11:31:14;;;;;;;3.83;2.00;;;;;;;;;;10368717;28;20061;-76
2023/10/23 11:36:20;;;;;;;2.15;1.20;;;;;;;;;;10373168;28;20534;-76
2023/10/23 11:41:24;;;;;;;;;;;;;;;;;;10372758;28;20415;-75
2023/10/23 11:46:27;;;;;;;3.00;1.17;;;;;;;;;;10365415;28;19983;-76
2023/10/23 11:51:35;;;;;;;2.72;0.80;;;;;;;;;;10367705;28;20108;-76
2023/10/23 11:56:45;;;;;;;1.60;0.75;;;;;;;;;;10365853;28;20474;-76
2023/10/23 12:01:52;;;;;;;1.33;0.70;;;;;;;;;;10357650;28;20121;-75
2023/10/23 12:06:59;;;;;;;2.50;1.00;;;;;;;;;;10357661;28;20052;-76
2023/10/23 12:12:07;;;;;;;1.35;0.85;;;;;;;;;;10363673;28;20053;-75
2023/10/23 12:17:17;;;;;;;2.43;0.83;;;;;;;;;;10337295;28;20053;-75
2023/10/23 12:22:25;;;;;;;3.92;1.15;;;;;;;;;;10339915;28;20562;-76
2023/10/23 12:27:29;;;;;;;2.00;0.90;;;;;;;;;;10363820;28;20548;-75
2023/10/23 12:32:33;;;;;;;2.33;0.77;;;;;;;;;;10363180;28;20057;-76
2023/10/23 12:37:39;;;;;;;1.48;0.80;;;;;;;;;;10363303;28;20050;-76
2023/10/23 12:42:44;;;;;;;1.73;0.60;;;;;;;;;;10363352;28;20050;-75
2023/10/23 12:47:49;;;;;;;1.77;0.60;;;;;;;;;;10360624;28;20108;-75
2023/10/23 12:52:54;;;;;;;2.50;0.90;;;;;;;;;;10363298;28;20054;-75
2023/10/23 12:57:57;;;;;;;1.63;0.60;;;;;;;;;;10365238;28;20097;-75
2023/10/23 13:03:01;;;;;;;1.63;0.75;;;;;;;;;;10363201;28;20061;-76
2023/10/23 13:08:15;;;;;;;1.40;0.50;;;;;;;;;;10362677;28;20057;-76
2023/10/23 13:13:18;;;;;;;3.05;0.73;;;;;;;;;;10350729;28;20096;-76
2023/10/23 13:18:22;;;;;;;3.28;0.80;;;;;;;;;;10362680;28;20046;-75
2023/10/23 13:23:27;;;;;;;1.80;0.65;;;;;;;;;;10339205;28;20045;-75
2023/10/23 13:28:30;;;;;;;3.78;0.80;;;;;;;;;;10365778;28;20061;-76
2023/10/23 13:33:34;;;;;;;2.25;0.80;;;;;;;;;;10376460;28;20057;-76
2023/10/23 13:38:41;;;;;;;2.22;0.47;;;;;;;;;;10352191;28;20053;-76
2023/10/23 13:43:45;;;;;;;1.48;0.52;;;;;;;;;;10371999;28;20053;-76
2023/10/23 13:48:48;;;;;;;1.15;0.68;;;;;;;;;;10369679;28;20050;-76
2023/10/23 13:53:53;;;;;;;1.02;0.70;;;;;;;;;;10373356;28;20050;-76
2023/10/23 13:58:57;;;;;;;1.55;0.50;;;;;;;;;;10372205;28;20053;-76
2023/10/23 14:04:01;;;;;;;1.23;0.60;;;;;;;;;;10372746;28;20581;-76
2023/10/23 14:09:09;;;;;;;1.48;0.70;;;;;;;;;;10370180;28;20050;-76
2023/10/23 14:14:28;;;;;;;1.15;0.60;;;;;;;;;;10372589;28;20144;-76
2023/10/23 14:19:32;;;;;;;1.73;0.90;;;;;;;;;;10348990;28;20050;-76
2023/10/23 14:24:42;;;;;;;1.35;0.70;;;;;;;;;;10344046;28;20423;-76
2023/10/23 14:29:45;;;;;;;2.15;0.70;;;;;;;;;;10369693;28;20064;-76
2023/10/23 14:34:49;;;;;;;2.35;0.80;;;;;;;;;;10384716;28;20037;-76
2023/10/23 14:39:54;;;;;;;2.17;0.68;;;;;;;;;;10373275;28;20454;-76
2023/10/23 14:44:59;;;;;;;2.10;0.70;;;;;;;;;;10370543;28;20523;-76
2023/10/23 14:50:05;;;;;;;1.38;0.68;;;;;;;;;;10376053;28;20056;-76
2023/10/23 14:55:11;;;;;;;0.80;0.50;;;;;;;;;;10369819;28;20526;-76
2023/10/23 15:00:17;;;;;;;1.27;0.50;;;;;;;;;;10361024;28;20454;-76
2023/10/23 15:05:23;;;;;;;1.63;0.50;;;;;;;;;;10372323;28;20053;-76
2023/10/23 15:10:30;;;;;;;2.00;0.80;;;;;;;;;;10373665;28;20057;-77
2023/10/23 15:15:58;;;;;;;;;;;;;;;;;;;;;
2023/10/23 15:21:32;;;;;;;3.00;1.52;;;;;;;;;;10346169;28;20544;-77
2023/10/23 15:33:13;;;;;;;1.38;0.90;;;;;;;;;;10257501;28;20068;-78
2023/10/23 15:51:56;;;;;;;1.15;0.63;;;;;;;;;;10306369;28;20058;-78
2023/10/23 15:57:32;;;;;;;1.23;0.82;;;;;;;;;;10341132;28;20050;-77
2023/10/23 16:02:44;;;;;;;1.88;0.60;;;;;;;;;;10338837;28;20057;-77
2023/10/23 16:08:22;;;;;;;;;;;;;;;;;;;;;
2023/10/23 16:13:41;;;;;;;1.65;0.80;;;;;;;;;;10314866;28;20623;-78
2023/10/23 16:19:01;;;;;;;2.63;1.20;;;;;;;;;;10365169;28;20045;-78
2023/10/23 16:24:13;;;;;;;2.03;0.80;;;;;;;;;;10365037;28;20145;-77
2023/10/23 16:29:19;;;;;;;1.80;0.60;;;;;;;;;;10365116;28;20046;-77
2023/10/23 16:34:23;;;;;;;1.42;0.70;;;;;;;;;;10335148;28;20146;-77
2023/10/23 16:39:30;;;;;;;1.67;0.70;;;;;;;;;;10366802;28;20045;-77
2023/10/23 16:44:36;;;;;;;3.03;1.17;;;;;;;;;;10347113;28;20132;-77
2023/10/23 16:49:53;;;;;;;0.93;0.82;;;;;;;;;;10364926;28;20057;-77
2023/10/23 16:55:10;;;;;;;1.42;0.80;;;;;;;;;;10342852;28;20500;-77
2023/10/23 17:00:18;;;;;;;2.67;0.93;;;;;;;;;;10331337;28;20621;-77
2023/10/23 17:05:35;;;;;;;1.70;1.15;;;;;;;;;;10336421;28;20046;-78
2023/10/23 17:10:43;;;;;;;2.25;1.00;;;;;;;;;;10370547;28;20058;-78
2023/10/23 17:15:54;;;;;;;1.40;1.00;;;;;;;;;;10376374;28;20046;-77
2023/10/23 17:27:08;;;;;;;;;;;;;;;;;;10364634;28;20050;-77
2023/10/23 17:32:17;;;;;;;3.03;1.60;;;;;;;;;;10335397;28;19925;-77
2023/10/23 17:37:22;;;;;;;4.40;2.63;;;;;;;;;;10365350;28;20065;-77
2023/10/23 17:42:27;;;;;;;4.80;2.25;;;;;;;;;;10371439;28;20049;-77
2023/10/23 17:47:31;;;;;;;1.90;1.20;;;;;;;;;;10380750;28;20365;-77
2023/10/23 17:52:36;;;;;;;1.77;1.38;;;;;;;;;;10380636;28;20081;-78
2023/10/23 17:57:41;;;;;;;1.80;1.20;;;;;;;;;;10330550;28;20566;-77
2023/10/23 18:02:45;;;;;;;3.10;1.23;;;;;;;;;;10368059;28;20053;-77
2023/10/23 18:07:51;;;;;;;3.03;1.55;;;;;;;;;;10376315;28;20084;-77
2023/10/23 18:12:57;;;;;;;1.50;1.25;;;;;;;;;;10374258;28;20101;-78
2023/10/23 18:18:00;;;;;;;2.13;1.23;;;;;;;;;;10372389;28;20414;-78
2023/10/23 18:23:07;;;;;;;2.17;1.40;;;;;;;;;;10370311;28;20037;-78
2023/10/23 18:28:12;;;;;;;4.05;1.40;;;;;;;;;;10370881;28;20178;-77
2023/10/23 18:33:16;;;;;;;3.33;1.77;;;;;;;;;;10361172;28;20063;-78
2023/10/23 18:38:25;;;;;;;3.58;1.80;;;;;;;;;;10373124;28;20091;-77
2023/10/23 18:43:32;;;;;;;4.28;2.17;;;;;;;;;;10345806;28;20049;-77
2023/10/23 18:48:36;;;;;;;1.65;1.38;;;;;;;;;;10384339;28;20097;-77
2023/10/23 18:53:48;;;;;;;1.70;1.30;;;;;;;;;;10362239;28;20446;-78
2023/10/23 18:58:56;;;;;;;2.28;1.30;;;;;;;;;;10369346;28;20435;-78
2023/10/23 19:04:08;;;;;;;3.13;1.30;;;;;;;;;;10373024;28;20503;-78
2023/10/23 19:09:25;;;;;;;2.10;1.20;;;;;;;;;;10369251;28;20045;-77
2023/10/23 19:14:32;;;;;;;1.40;1.10;;;;;;;;;;10345389;28;20053;-77
2023/10/23 19:19:35;;;;;;;2.53;1.20;;;;;;;;;;10340195;28;20111;-77
2023/10/23 19:24:39;;;;;;;1.23;1.13;;;;;;;;;;10360841;28;20054;-77
2023/10/23 19:29:44;;;;;;;1.83;1.10;;;;;;;;;;10367646;28;20053;-77
2023/10/23 19:34:48;;;;;;;1.23;0.88;;;;;;;;;;10342552;28;20515;-77
2023/10/23 19:39:52;;;;;;;2.60;1.23;;;;;;;;;;10366756;28;20412;-77
2023/10/23 19:45:00;;;;;;;1.17;1.00;;;;;;;;;;10356720;23;20499;-76
2023/10/23 19:50:04;;;;;;;1.60;0.90;;;;;;;;;;10340516;28;20057;-76
2023/10/23 19:55:12;;;;;;;1.20;0.85;;;;;;;;;;10300048;28;20125;-76
2023/10/23 20:00:18;;;;;;;1.65;1.10;;;;;;;;;;10306244;28;20048;-76
2023/10/23 20:05:21;;;;;;;1.40;0.93;;;;;;;;;;10328921;28;20400;-75
2023/10/23 20:10:25;;;;;;;0.98;0.85;;;;;;;;;;10335789;28;20049;-76
2023/10/23 20:15:31;;;;;;;1.65;1.08;;;;;;;;;;10335505;28;20110;-76
2023/10/23 20:20:34;;;;;;;1.83;0.90;;;;;;;;;;10332453;28;20077;-76
2023/10/23 20:25:38;;;;;;;0.88;0.80;;;;;;;;;;10327737;28;20455;-76
2023/10/23 20:30:43;;;;;;;1.77;1.08;;;;;;;;;;10329473;28;20049;-75
2023/10/23 20:35:46;;;;;;;1.15;0.80;;;;;;;;;;10327612;28;20128;-76
2023/10/23 20:40:50;;;;;;;1.98;1.30;;;;;;;;;;10327797;28;20054;-76
2023/10/23 20:45:57;;;;;;;1.77;1.55;;;;;;;;;;10324653;28;20471;-76
2023/10/23 20:51:01;;;;;;;1.50;1.30;;;;;;;;;;10326101;28;20057;-76
2023/10/23 20:56:05;;;;;;;3.08;1.30;;;;;;;;;;10328168;28;20053;-76
2023/10/23 21:01:10;;;;;;;3.90;1.90;;;;;;;;;;10325418;28;20101;-76
2023/10/23 21:06:14;;;;;;;3.00;2.40;;;;;;;;;;10325880;28;20050;-76
2023/10/23 21:11:18;;;;;;;2.85;2.15;;;;;;;;;;10331151;28;20046;-76
2023/10/23 21:16:23;;;;;;;2.90;2.10;;;;;;;;;;10329620;28;20043;-75
2023/10/23 21:21:28;;;;;;;4.23;2.70;;;;;;;;;;10324129;28;20795;-76
2023/10/23 21:26:31;;;;;;;3.03;2.13;;;;;;;;;;10331745;28;20124;-76
2023/10/23 21:31:36;;;;;;;2.47;2.00;;;;;;;;;;10328399;28;20077;-76
2023/10/23 21:36:39;;;;;;;2.45;1.75;;;;;;;;;;10324430;28;20055;-76
2023/10/23 21:41:43;;;;;;;2.28;1.88;;;;;;;;;;10327052;28;20042;-76
2023/10/23 21:46:48;;;;;;;1.50;1.40;;;;;;;;;;10326608;28;20161;-76
2023/10/23 21:51:51;;;;;;;1.75;1.50;;;;;;;;;;10342496;28;20057;-76
2023/10/23 21:56:55;;;;;;;2.35;1.45;;;;;;;;;;10339207;28;20051;-75
2023/10/23 22:02:01;;;;;;;2.20;1.65;;;;;;;;;;10317115;28;20042;-75
2023/10/23 22:07:05;;;;;;;1.40;1.20;;;;;;;;;;10320657;28;20565;-75
2023/10/23 22:12:10;;;;;;;1.45;1.30;;;;;;;;;;10322352;28;20771;-75
2023/10/23 22:17:15;;;;;;;1.50;1.30;;;;;;;;;;10299741;28;20491;-76
2023/10/23 22:22:18;;;;;;;2.70;1.60;;;;;;;;;;10330115;28;20046;-75
2023/10/23 22:27:21;;;;;;;3.53;1.70;;;;;;;;;;10312375;28;20034;-75
2023/10/23 22:32:26;;;;;;;2.30;1.77;;;;;;;;;;10306700;28;20294;-76
2023/10/23 22:37:29;;;;;;;4.75;2.70;;;;;;;;;;10324366;28;20065;-76
2023/10/23 22:42:32;;;;;;;3.85;2.00;;;;;;;;;;10336612;28;20640;-75
2023/10/23 22:47:37;;;;;;;2.90;2.13;;;;;;;;;;10332085;28;20082;-76
2023/10/23 22:52:41;;;;;;;4.30;3.03;;;;;;;;;;10307333;28;20077;-75
2023/10/23 22:57:46;;;;;;;3.90;2.40;;;;;;;;;;10310500;28;20556;-75
2023/10/23 23:02:52;;;;;;;2.53;1.70;;;;;;;;;;10326674;28;20057;-75
2023/10/23 23:07:58;;;;;;;3.70;3.20;;;;;;;;;;10326823;28;20058;-75
2023/10/23 23:13:01;;;;;;;2.80;2.33;;;;;;;;;;10326410;28;20655;-75
2023/10/23 23:18:07;;;;;;;2.25;1.92;;;;;;;;;;10332102;28;20052;-75
2023/10/23 23:23:10;;;;;;;2.50;1.63;;;;;;;;;;10327208;28;20038;-75
2023/10/23 23:28:15;;;;;;;2.28;1.58;;;;;;;;;;10324978;28;20038;-75
2023/10/23 23:33:20;;;;;;;2.92;1.88;;;;;;;;;;10324800;28;20073;-75
2023/10/23 23:38:23;;;;;;;3.33;2.40;;;;;;;;;;10331334;28;20049;-75
2023/10/23 23:43:26;;;;;;;2.88;1.83;;;;;;;;;;10326444;28;20403;-75
2023/10/23 23:48:31;;;;;;;2.88;1.65;;;;;;;;;;10327840;28;20476;-75
2023/10/23 23:53:34;;;;;;;3.58;2.13;;;;;;;;;;10309378;28;20042;-75
2023/10/23 23:58:38;;;;;;;3.83;2.90;;;;;;;;;;10327212;28;20419;-75
